Time;durP1;ratioP1;P1;durP2;ratioP2;P2;SDS_P1;SDS_P2;PMS_P1;PMS_P2;Temp;Humidity;BMP_temperature;BMP_pressure;BME280_temperature;BME280_humidity;BME280_pressure;Samples;Min_cycle;Max_cycle;Signal;HPM_P1;HPM_P2
2023/04/26 00:01:10;;;;;;;10.30;4.00;;;4.50;99.90;;;;;;4952664;28;20458;-73
2023/04/26 00:03:36;;;;;;;6.03;3.90;;;4.50;99.90;;;;;;4952478;28;20538;-73
2023/04/26 00:06:07;;;;;;;8.33;4.00;;;4.50;99.90;;;;;;4952149;28;20873;-73
2023/04/26 00:08:34;;;;;;;4.50;3.30;;;4.40;99.90;;;;;;4952565;28;20950;-73
2023/04/26 00:11:02;;;;;;;3.87;3.47;;;4.50;99.90;;;;;;4952620;28;20482;-73
2023/04/26 00:13:29;;;;;;;12.07;4.30;;;4.50;99.90;;;;;;4952776;28;20507;-73
2023/04/26 00:15:55;;;;;;;8.87;3.60;;;4.40;99.90;;;;;;4952126;28;20510;-73
2023/04/26 00:18:22;;;;;;;5.37;3.50;;;4.40;99.90;;;;;;4952153;28;20997;-73
2023/04/26 00:20:49;;;;;;;7.73;3.73;;;4.40;99.90;;;;;;4955045;28;20473;-73
2023/04/26 00:23:16;;;;;;;4.97;3.90;;;4.40;99.90;;;;;;4951907;28;20875;-73
2023/04/26 00:25:42;;;;;;;4.70;4.20;;;4.30;99.90;;;;;;4952333;28;20958;-73
2023/04/26 00:28:10;;;;;;;9.80;4.10;;;4.30;99.90;;;;;;4952205;28;20601;-72
2023/04/26 00:30:40;;;;;;;5.80;4.27;;;4.30;99.90;;;;;;4952043;28;20474;-72
2023/04/26 00:33:06;;;;;;;14.13;3.93;;;4.20;99.90;;;;;;4952107;28;20951;-73
2023/04/26 00:35:33;;;;;;;4.70;3.57;;;4.20;99.90;;;;;;4952482;28;20453;-73
2023/04/26 00:37:59;;;;;;;8.90;3.63;;;4.10;99.90;;;;;;4952046;28;20457;-73
2023/04/26 00:40:26;;;;;;;7.10;4.03;;;4.10;99.90;;;;;;4952303;28;20480;-73
2023/04/26 00:42:57;;;;;;;7.70;3.70;;;4.10;99.90;;;;;;4952180;28;21001;-73
2023/04/26 00:45:26;;;;;;;3.90;3.50;;;4.10;99.90;;;;;;4952112;28;20458;-73
2023/04/26 00:47:53;;;;;;;7.17;3.77;;;4.10;99.90;;;;;;4951898;28;20509;-73
2023/04/26 00:50:20;;;;;;;5.40;3.93;;;4.10;99.90;;;;;;4952014;28;20465;-73
2023/04/26 00:52:47;;;;;;;5.33;3.20;;;4.10;99.90;;;;;;4952552;28;20513;-73
2023/04/26 00:55:15;;;;;;;7.83;3.50;;;4.00;99.90;;;;;;4951175;28;20455;-73
2023/04/26 00:57:41;;;;;;;4.47;3.80;;;4.00;99.90;;;;;;4951878;28;20488;-73
2023/04/26 01:00:10;;;;;;;9.90;3.87;;;3.90;99.90;;;;;;4951206;28;20899;-73
2023/04/26 01:02:38;;;;;;;6.83;3.77;;;3.90;99.90;;;;;;4952202;28;20465;-73
2023/04/26 01:05:05;;;;;;;7.27;4.00;;;3.80;99.90;;;;;;4951676;28;20548;-73
2023/04/26 01:07:32;;;;;;;6.70;4.30;;;3.80;99.90;;;;;;4952087;28;20458;-73
2023/04/26 01:09:59;;;;;;;6.90;3.93;;;3.70;99.90;;;;;;4951242;28;20525;-73
2023/04/26 01:12:26;;;;;;;8.00;3.57;;;3.70;99.90;;;;;;4952348;28;20803;-73
2023/04/26 01:14:53;;;;;;;11.60;4.20;;;3.70;99.90;;;;;;4951927;28;20454;-73
2023/04/26 01:17:20;;;;;;;9.37;3.97;;;3.70;99.90;;;;;;4951417;28;20470;-73
2023/04/26 01:19:48;;;;;;;7.50;3.97;;;3.70;99.90;;;;;;4954326;28;20552;-73
2023/04/26 01:22:16;;;;;;;11.00;4.20;;;3.70;99.90;;;;;;4951859;28;20885;-73
2023/04/26 01:24:46;;;;;;;4.33;3.53;;;3.70;99.90;;;;;;4951526;28;20904;-73
2023/04/26 01:27:13;;;;;;;8.10;3.90;;;3.70;99.90;;;;;;4951785;28;20506;-73
2023/04/26 01:29:39;;;;;;;6.47;4.10;;;3.60;99.90;;;;;;4951768;28;20493;-73
2023/04/26 01:32:06;;;;;;;13.00;4.50;;;3.60;99.90;;;;;;4951348;28;20515;-73
2023/04/26 01:34:33;;;;;;;4.93;3.57;;;3.50;99.90;;;;;;4951574;28;20481;-73
2023/04/26 01:37:00;;;;;;;4.60;3.83;;;3.50;99.90;;;;;;4951330;28;20552;-73
2023/04/26 01:39:27;;;;;;;6.07;4.03;;;3.50;99.90;;;;;;4951600;28;20472;-73
2023/04/26 01:41:57;;;;;;;4.60;3.90;;;3.40;99.90;;;;;;4951808;28;20457;-73
2023/04/26 01:44:24;;;;;;;12.50;4.10;;;3.40;99.90;;;;;;4943545;28;20958;-73
2023/04/26 01:46:50;;;;;;;3.97;3.60;;;3.40;99.90;;;;;;4951171;28;20466;-73
2023/04/26 01:49:17;;;;;;;9.07;4.43;;;3.30;99.90;;;;;;4951129;28;20556;-73
2023/04/26 01:51:43;;;;;;;8.90;3.60;;;3.30;99.90;;;;;;4951450;28;20529;-73
2023/04/26 01:54:10;;;;;;;15.40;4.53;;;3.30;99.90;;;;;;4951591;28;20457;-73
2023/04/26 01:56:37;;;;;;;10.67;4.33;;;3.30;99.90;;;;;;4951558;28;20468;-73
2023/04/26 01:59:05;;;;;;;7.10;3.70;;;3.30;99.90;;;;;;4951300;28;20454;-73
2023/04/26 02:01:31;;;;;;;8.10;3.90;;;3.20;99.90;;;;;;4951055;28;20458;-73
2023/04/26 02:03:58;;;;;;;5.77;3.73;;;3.20;99.90;;;;;;4951530;28;20475;-73
2023/04/26 02:06:25;;;;;;;5.70;3.20;;;3.10;99.90;;;;;;4943794;28;20488;-73
2023/04/26 02:08:52;;;;;;;14.37;3.90;;;3.10;99.90;;;;;;4954481;28;20569;-73
2023/04/26 02:11:18;;;;;;;5.03;3.30;;;3.00;99.90;;;;;;4954691;28;21807;-73
2023/04/26 02:13:45;;;;;;;4.97;3.60;;;3.00;99.90;;;;;;4954585;28;20469;-73
2023/04/26 02:16:14;;;;;;;4.10;3.70;;;3.00;99.90;;;;;;4954140;28;20468;-73
2023/04/26 02:18:41;;;;;;;4.70;3.63;;;2.90;99.90;;;;;;4955438;28;20468;-73
2023/04/26 02:21:09;;;;;;;3.63;3.33;;;2.90;99.90;;;;;;4956535;28;20993;-73
2023/04/26 02:23:35;;;;;;;6.53;5.57;;;2.90;99.90;;;;;;4954650;28;20461;-73
2023/04/26 02:26:02;;;;;;;9.63;4.03;;;2.90;99.90;;;;;;4954211;28;20515;-73
2023/04/26 02:28:29;;;;;;;8.00;3.50;;;2.80;99.90;;;;;;4954810;28;20559;-73
2023/04/26 02:30:57;;;;;;;7.80;3.67;;;2.80;99.90;;;;;;4954107;28;20548;-73
2023/04/26 02:33:25;;;;;;;6.30;4.60;;;2.80;99.90;;;;;;4954493;28;20464;-73
2023/04/26 02:35:51;;;;;;;14.57;5.00;;;2.80;99.90;;;;;;4954237;28;20469;-73
2023/04/26 02:38:18;;;;;;;8.43;3.40;;;2.70;99.90;;;;;;4954120;28;20806;-73
2023/04/26 02:40:45;;;;;;;5.83;3.37;;;2.70;99.90;;;;;;4954053;28;20470;-73
2023/04/26 02:43:11;;;;;;;9.23;4.07;;;2.70;99.90;;;;;;4953895;28;20524;-73
2023/04/26 02:45:42;;;;;;;7.57;4.00;;;2.70;99.90;;;;;;4954132;28;20518;-73
2023/04/26 02:48:08;;;;;;;11.53;3.73;;;2.70;99.90;;;;;;4953712;28;20969;-73
2023/04/26 02:50:36;;;;;;;5.23;3.57;;;2.60;99.90;;;;;;4954040;28;20492;-73
2023/04/26 02:53:03;;;;;;;7.90;3.70;;;2.70;99.90;;;;;;4954017;28;20468;-73
2023/04/26 02:55:30;;;;;;;5.57;4.00;;;2.70;99.90;;;;;;4953770;28;20483;-73
2023/04/26 02:57:56;;;;;;;6.67;4.03;;;2.70;99.90;;;;;;4954275;28;20512;-73
2023/04/26 03:00:24;;;;;;;5.07;4.00;;;2.70;99.90;;;;;;4953581;28;20504;-73
2023/04/26 03:02:50;;;;;;;9.07;4.30;;;2.60;99.90;;;;;;4949386;28;20465;-73
2023/04/26 03:05:18;;;;;;;5.20;3.90;;;2.70;99.90;;;;;;4953471;28;20489;-73
2023/04/26 03:07:46;;;;;;;10.53;4.83;;;2.70;99.90;;;;;;4953869;28;20492;-73
2023/04/26 03:10:13;;;;;;;11.53;4.00;;;2.70;99.90;;;;;;4952776;28;20493;-73
2023/04/26 03:12:40;;;;;;;9.73;3.90;;;2.70;99.90;;;;;;4954030;28;20911;-73
2023/04/26 03:15:08;;;;;;;8.10;6.53;;;2.70;99.90;;;;;;4952927;28;20464;-73
2023/04/26 03:17:35;;;;;;;7.13;3.93;;;2.80;99.90;;;;;;4953864;28;20531;-73
2023/04/26 03:20:03;;;;;;;10.93;3.80;;;2.80;99.90;;;;;;4955915;28;20904;-73
2023/04/26 03:22:29;;;;;;;4.33;3.33;;;2.80;99.90;;;;;;4945956;28;20901;-73
2023/04/26 03:24:57;;;;;;;7.53;4.27;;;2.70;99.90;;;;;;4953508;28;20507;-73
2023/04/26 03:27:24;;;;;;;5.33;3.80;;;2.70;99.90;;;;;;4953518;28;20802;-73
2023/04/26 03:29:51;;;;;;;10.40;3.80;;;2.70;99.90;;;;;;4953114;28;20994;-73
2023/04/26 03:32:17;;;;;;;5.20;4.00;;;2.60;99.90;;;;;;4953296;28;20457;-73
2023/04/26 03:34:44;;;;;;;7.23;3.33;;;2.60;99.90;;;;;;4952835;28;20460;-73
2023/04/26 03:37:12;;;;;;;4.60;3.70;;;2.40;99.90;;;;;;4953060;28;20531;-73
2023/04/26 03:39:38;;;;;;;4.63;3.73;;;2.30;99.90;;;;;;4952974;28;20988;-73
2023/04/26 03:42:06;;;;;;;4.53;3.50;;;2.10;99.90;;;;;;4953049;28;20458;-73
2023/04/26 03:44:33;;;;;;;5.77;3.80;;;2.10;99.90;;;;;;4952916;28;21279;-73
2023/04/26 03:46:59;;;;;;;5.13;3.40;;;2.00;99.90;;;;;;4952728;28;20486;-73
2023/04/26 03:49:26;;;;;;;7.00;3.93;;;2.00;99.90;;;;;;4952854;28;20538;-73
2023/04/26 03:51:53;;;;;;;4.60;3.53;;;1.90;99.90;;;;;;4952759;28;20875;-73
2023/04/26 03:54:19;;;;;;;4.60;3.80;;;2.00;99.90;;;;;;4952733;28;20467;-73
2023/04/26 03:56:46;;;;;;;9.40;3.63;;;2.00;99.90;;;;;;4951408;28;20455;-73
2023/04/26 03:59:14;;;;;;;7.83;4.13;;;2.00;99.90;;;;;;4949011;28;20478;-73
2023/04/26 04:01:41;;;;;;;7.47;3.90;;;2.00;99.90;;;;;;4951242;28;20887;-73
2023/04/26 04:04:08;;;;;;;6.80;3.83;;;1.90;99.90;;;;;;4952340;28;20811;-73
2023/04/26 04:06:35;;;;;;;6.13;3.50;;;1.90;99.90;;;;;;4952792;28;20834;-73
2023/04/26 04:09:04;;;;;;;12.63;3.73;;;2.00;99.90;;;;;;4952727;28;20517;-73
2023/04/26 04:11:31;;;;;;;5.57;4.80;;;2.00;99.90;;;;;;4952678;28;20456;-73
2023/04/26 04:13:58;;;;;;;10.73;4.80;;;1.90;99.90;;;;;;4950256;28;20496;-71
2023/04/26 04:16:26;;;;;;;7.50;4.00;;;1.90;99.90;;;;;;4951536;28;21272;-72
2023/04/26 04:18:53;;;;;;;7.43;4.43;;;1.90;99.90;;;;;;4954994;28;20450;-72
2023/04/26 04:21:19;;;;;;;7.83;4.53;;;1.90;99.90;;;;;;4953519;28;21236;-72
2023/04/26 04:23:47;;;;;;;8.77;3.87;;;2.00;99.90;;;;;;4952713;28;20458;-72
2023/04/26 04:26:13;;;;;;;13.73;4.07;;;1.90;99.90;;;;;;4951934;28;20453;-72
2023/04/26 04:28:41;;;;;;;5.57;3.90;;;1.90;99.90;;;;;;4952130;28;20463;-71
2023/04/26 04:31:08;;;;;;;15.40;4.63;;;1.90;99.90;;;;;;4951753;28;20529;-72
2023/04/26 04:33:36;;;;;;;5.57;3.60;;;1.90;99.90;;;;;;4946718;28;20546;-72
2023/04/26 04:36:03;;;;;;;10.57;3.90;;;1.90;99.90;;;;;;4952901;28;20465;-73
2023/04/26 04:38:30;;;;;;;10.80;4.50;;;1.90;99.90;;;;;;4952560;28;21028;-72
2023/04/26 04:40:57;;;;;;;9.70;4.47;;;1.90;99.90;;;;;;4952792;28;20480;-72
2023/04/26 04:43:23;;;;;;;7.27;4.27;;;1.90;99.90;;;;;;4951835;28;20888;-72
2023/04/26 04:45:50;;;;;;;10.60;4.17;;;1.90;99.90;;;;;;4954662;28;20958;-72
2023/04/26 04:48:17;;;;;;;11.37;4.60;;;1.90;99.90;;;;;;4952252;28;20453;-71
2023/04/26 04:50:45;;;;;;;11.63;4.80;;;2.00;99.90;;;;;;4959386;28;20493;-70
2023/04/26 04:53:12;;;;;;;7.50;5.27;;;2.10;99.90;;;;;;4952132;28;20455;-70
2023/04/26 04:55:39;;;;;;;7.00;4.73;;;2.00;99.90;;;;;;4951506;28;20447;-71
2023/04/26 04:58:06;;;;;;;5.00;4.13;;;2.10;99.90;;;;;;4951958;28;20476;-71
2023/04/26 05:00:33;;;;;;;7.23;4.90;;;2.20;99.90;;;;;;4945769;28;21031;-71
2023/04/26 05:02:59;;;;;;;5.80;4.50;;;2.20;99.90;;;;;;4952926;28;20973;-70
2023/04/26 05:05:26;;;;;;;13.60;4.73;;;2.30;99.90;;;;;;4951843;28;20521;-71
2023/04/26 05:07:54;;;;;;;10.30;4.47;;;2.30;99.90;;;;;;4952504;28;20527;-71
2023/04/26 05:10:21;;;;;;;10.03;5.40;;;2.40;99.90;;;;;;4952775;28;20491;-71
2023/04/26 05:12:48;;;;;;;11.53;5.47;;;2.50;99.90;;;;;;4952685;28;20462;-71
2023/04/26 05:15:14;;;;;;;8.87;6.03;;;2.60;99.90;;;;;;4951339;28;20460;-70
2023/04/26 05:17:42;;;;;;;10.03;5.77;;;2.70;99.90;;;;;;4951467;28;20517;-71
2023/04/26 05:20:10;;;;;;;11.87;5.60;;;2.80;99.90;;;;;;4950604;28;20559;-70
2023/04/26 05:22:37;;;;;;;10.83;5.20;;;2.90;99.90;;;;;;4951028;28;20945;-70
2023/04/26 05:25:07;;;;;;;8.20;4.57;;;3.00;99.90;;;;;;4951790;28;20460;-70
2023/04/26 05:27:33;;;;;;;11.27;4.70;;;3.20;99.90;;;;;;4951785;28;20457;-70
2023/04/26 05:30:00;;;;;;;8.00;4.70;;;3.50;99.90;;;;;;4951982;28;20556;-70
2023/04/26 05:32:27;;;;;;;10.60;4.47;;;3.70;99.90;;;;;;4951666;28;20499;-70
2023/04/26 05:34:54;;;;;;;18.00;4.60;;;3.90;99.90;;;;;;4951560;28;20463;-70
2023/04/26 05:37:20;;;;;;;9.80;4.80;;;4.10;99.90;;;;;;4951583;28;20477;-70
2023/04/26 05:39:47;;;;;;;12.47;5.30;;;4.30;99.90;;;;;;4951706;28;20974;-70
2023/04/26 05:42:16;;;;;;;11.30;5.50;;;4.60;99.90;;;;;;4952218;28;20462;-70
2023/04/26 05:44:42;;;;;;;10.77;4.20;;;5.00;99.90;;;;;;4955390;28;20489;-70
2023/04/26 05:47:09;;;;;;;7.67;4.70;;;5.30;99.90;;;;;;4955318;28;20461;-70
2023/04/26 05:49:36;;;;;;;13.50;4.97;;;5.60;99.90;;;;;;4955175;28;20974;-70
2023/04/26 05:52:03;;;;;;;6.03;4.53;;;5.90;99.90;;;;;;4955429;28;20508;-72
2023/04/26 05:54:29;;;;;;;11.43;4.33;;;6.20;99.90;;;;;;4954989;28;20628;-70
2023/04/26 05:56:56;;;;;;;11.83;5.33;;;6.50;99.90;;;;;;4955155;28;20894;-70
2023/04/26 05:59:24;;;;;;;11.93;4.17;;;6.80;99.90;;;;;;4954670;28;20474;-69
2023/04/26 06:01:51;;;;;;;10.30;4.37;;;6.90;99.90;;;;;;4955079;28;20960;-69
2023/04/26 06:04:17;;;;;;;6.33;4.40;;;7.00;99.90;;;;;;4955220;28;20459;-69
2023/04/26 06:06:44;;;;;;;20.23;4.00;;;7.20;99.90;;;;;;4955253;28;20453;-70
2023/04/26 06:09:11;;;;;;;11.93;4.37;;;7.40;99.90;;;;;;4954972;28;20528;-68
2023/04/26 06:11:37;;;;;;;11.03;3.90;;;7.60;99.90;;;;;;4954896;28;20571;-70
2023/04/26 06:14:04;;;;;;;5.87;3.80;;;7.90;99.90;;;;;;4954893;28;20455;-70
2023/04/26 06:16:32;;;;;;;9.57;3.60;;;8.10;99.90;;;;;;4954939;28;21653;-70
2023/04/26 06:18:58;;;;;;;8.10;4.20;;;8.10;99.90;;;;;;4955099;28;20461;-69
2023/04/26 06:21:26;;;;;;;5.67;4.10;;;8.10;99.90;;;;;;4954897;28;20460;-70
2023/04/26 06:23:52;;;;;;;12.23;4.77;;;8.00;99.90;;;;;;4954995;28;20457;-70
2023/04/26 06:26:19;;;;;;;9.50;3.93;;;8.00;99.90;;;;;;4954521;28;20503;-69
2023/04/26 06:28:45;;;;;;;10.77;3.60;;;8.20;99.90;;;;;;4954484;28;20880;-70
2023/04/26 06:31:12;;;;;;;9.13;4.00;;;8.30;99.90;;;;;;4954751;28;20505;-70
2023/04/26 06:33:40;;;;;;;6.70;3.43;;;8.50;99.90;;;;;;4954995;28;20516;-70
2023/04/26 06:36:11;;;;;;;7.40;3.43;;;8.50;99.90;;;;;;4954561;28;20498;-70
2023/04/26 06:38:38;;;;;;;5.23;3.17;;;8.40;99.90;;;;;;4947286;28;20487;-72
2023/04/26 06:41:04;;;;;;;6.93;3.80;;;8.40;99.90;;;;;;4954468;28;20543;-70
2023/04/26 06:43:31;;;;;;;9.73;3.33;;;8.50;99.90;;;;;;4954562;28;20460;-70
2023/04/26 06:45:58;;;;;;;11.00;3.93;;;8.80;99.90;;;;;;4954893;28;20446;-70
2023/04/26 06:48:24;;;;;;;12.23;4.10;;;9.00;99.90;;;;;;4954262;28;20869;-70
2023/04/26 06:50:52;;;;;;;6.57;3.27;;;9.10;99.90;;;;;;4954245;28;20520;-70
2023/04/26 06:53:19;;;;;;;9.00;3.50;;;9.30;99.90;;;;;;4953921;28;20870;-70
2023/04/26 06:55:45;;;;;;;8.83;4.20;;;9.50;99.90;;;;;;4954242;28;20483;-70
2023/04/26 06:58:12;;;;;;;14.60;3.30;;;9.30;99.90;;;;;;4954154;28;20457;-70
2023/04/26 07:00:39;;;;;;;7.13;3.20;;;9.40;99.90;;;;;;4947800;28;20469;-70
2023/04/26 07:03:05;;;;;;;12.23;3.70;;;9.60;99.90;;;;;;4954311;28;20540;-70
2023/04/26 07:05:32;;;;;;;7.87;3.83;;;9.80;99.90;;;;;;4953746;28;20458;-70
2023/04/26 07:08:00;;;;;;;7.80;3.40;;;9.90;99.90;;;;;;4953870;28;20951;-70
2023/04/26 07:10:27;;;;;;;5.93;3.40;;;10.00;99.90;;;;;;4953820;28;20490;-70
2023/04/26 07:12:53;;;;;;;11.10;2.90;;;10.20;99.90;;;;;;4954064;28;20875;-70
2023/04/26 07:15:20;;;;;;;9.70;3.00;;;10.20;99.90;;;;;;4953601;28;20505;-70
2023/04/26 07:17:46;;;;;;;8.20;3.37;;;10.30;99.90;;;;;;4953947;28;20450;-70
2023/04/26 07:20:14;;;;;;;7.53;3.53;;;10.30;99.90;;;;;;4953707;28;20485;-70
2023/04/26 07:22:41;;;;;;;15.93;4.37;;;10.50;99.90;;;;;;4946129;28;20454;-69
2023/04/26 07:25:09;;;;;;;8.63;3.87;;;10.40;99.90;;;;;;4953540;28;20855;-70
2023/04/26 07:27:36;;;;;;;10.23;3.83;;;10.60;99.90;;;;;;4953541;28;20446;-69
2023/04/26 07:30:04;;;;;;;5.00;3.13;;;10.80;99.90;;;;;;4953480;28;20845;-70
2023/04/26 07:32:30;;;;;;;8.50;3.17;;;10.90;99.90;;;;;;4953414;28;20457;-70
2023/04/26 07:34:57;;;;;;;10.50;2.93;;;11.00;99.90;;;;;;4953213;28;20517;-70
2023/04/26 07:37:24;;;;;;;12.07;3.40;;;11.00;99.90;;;;;;4952491;28;20958;-69
2023/04/26 07:39:50;;;;;;;8.63;3.07;;;11.20;99.90;;;;;;4952734;28;20887;-69
2023/04/26 07:42:18;;;;;;;8.70;3.40;;;11.30;99.90;;;;;;4952456;28;20454;-69
2023/04/26 07:44:45;;;;;;;7.07;3.30;;;11.70;99.90;;;;;;4952834;28;20948;-69
2023/04/26 07:47:13;;;;;;;13.90;3.50;;;12.00;99.90;;;;;;4952229;28;20516;-70
2023/04/26 07:49:40;;;;;;;4.80;2.83;;;12.40;99.90;;;;;;4952486;28;20476;-70
2023/04/26 07:52:07;;;;;;;7.70;2.50;;;12.60;99.90;;;;;;4952808;28;20612;-69
2023/04/26 07:54:34;;;;;;;6.30;2.80;;;12.70;99.90;;;;;;4952090;28;20993;-70
2023/04/26 07:57:01;;;;;;;10.03;2.90;;;12.70;99.90;;;;;;4952517;28;20454;-70
2023/04/26 07:59:29;;;;;;;3.90;2.50;;;12.80;99.90;;;;;;4951834;28;20474;-70
2023/04/26 08:01:56;;;;;;;4.93;2.60;;;12.80;99.90;;;;;;4952371;28;20958;-69
2023/04/26 08:04:32;;;;;;;12.33;2.57;;;12.70;99.90;;;;;;4951876;28;20450;-70
2023/04/26 08:07:00;;;;;;;7.67;2.97;;;12.50;99.90;;;;;;4952405;28;20639;-70
2023/04/26 08:09:27;;;;;;;9.37;3.33;;;12.50;99.90;;;;;;4951948;28;20477;-70
2023/04/26 08:11:53;;;;;;;8.50;3.27;;;12.40;99.90;;;;;;4952142;28;21001;-69
2023/04/26 08:14:20;;;;;;;11.17;3.60;;;12.10;99.90;;;;;;4951718;28;20942;-70
2023/04/26 08:16:48;;;;;;;5.17;2.87;;;11.60;99.90;;;;;;4952431;28;20505;-70
2023/04/26 08:19:14;;;;;;;7.47;3.10;;;11.30;99.90;;;;;;4952016;28;20532;-70
2023/04/26 08:21:41;;;;;;;7.93;2.70;;;11.00;99.90;;;;;;4952076;28;21017;-70
2023/04/26 08:24:08;;;;;;;10.40;2.97;;;10.70;99.90;;;;;;4951788;28;20457;-70
2023/04/26 08:26:34;;;;;;;10.60;3.20;;;10.60;99.90;;;;;;4951482;28;20950;-70
2023/04/26 08:29:01;;;;;;;8.20;2.60;;;10.70;99.90;;;;;;4952142;28;20516;-70
2023/04/26 08:31:27;;;;;;;4.13;2.50;;;10.90;99.90;;;;;;4951856;28;20489;-70
2023/04/26 08:33:55;;;;;;;4.70;2.47;;;11.20;99.90;;;;;;4951850;28;20536;-70
2023/04/26 08:36:22;;;;;;;2.53;2.17;;;11.70;99.90;;;;;;4916406;28;1025788;-70
2023/04/26 08:38:48;;;;;;;6.60;2.80;;;12.10;99.90;;;;;;4952308;28;20210;-69
2023/04/26 08:41:20;;;;;;;7.63;3.20;;;12.40;99.90;;;;;;4952260;28;21005;-71
2023/04/26 08:43:47;;;;;;;7.00;2.80;;;12.50;99.90;;;;;;4945169;28;20461;-70
2023/04/26 08:46:17;;;;;;;8.43;2.93;;;12.10;99.90;;;;;;4952520;28;20446;-70
2023/04/26 08:48:47;;;;;;;6.00;2.87;;;11.80;99.90;;;;;;4944414;28;20525;-70
2023/04/26 08:51:16;;;;;;;6.60;2.90;;;11.70;99.90;;;;;;4952006;28;20489;-69
2023/04/26 08:53:43;;;;;;;6.50;2.50;;;11.80;99.90;;;;;;4952465;28;20450;-69
2023/04/26 08:56:12;;;;;;;5.43;2.90;;;11.60;99.90;;;;;;4952579;28;20470;-69
2023/04/26 08:58:38;;;;;;;2.57;2.33;;;11.40;99.90;;;;;;4951993;28;20450;-69
2023/04/26 09:01:06;;;;;;;6.53;2.53;;;11.30;99.90;;;;;;4951986;28;20474;-70
2023/04/26 09:03:33;;;;;;;8.37;2.83;;;11.50;99.90;;;;;;4951922;28;20906;-70
2023/04/26 09:06:01;;;;;;;8.50;3.00;;;11.80;99.90;;;;;;4951859;28;20508;-70
2023/04/26 09:08:29;;;;;;;4.03;2.67;;;12.30;99.90;;;;;;4952002;28;20500;-69
2023/04/26 09:10:56;;;;;;;3.47;2.40;;;12.60;99.90;;;;;;4952192;28;20532;-70
2023/04/26 09:13:28;;;;;;;6.20;2.47;;;12.80;99.90;;;;;;4951821;28;20819;-69
2023/04/26 09:15:55;;;;;;;7.70;2.43;;;12.80;99.90;;;;;;4951995;28;20468;-70
2023/04/26 09:18:23;;;;;;;5.50;2.80;;;12.60;99.90;;;;;;4954347;28;20465;-69
2023/04/26 09:21:02;;;;;;;7.33;2.40;;;12.20;99.90;;;;;;4956225;28;20548;-70
2023/04/26 09:23:31;;;;;;;5.40;2.70;;;11.90;99.90;;;;;;4955858;28;20508;-69
2023/04/26 09:26:16;;;;;;;6.80;2.73;;;11.80;99.90;;;;;;4955849;28;20497;-70
2023/04/26 09:28:43;;;;;;;7.93;2.60;;;11.90;99.90;;;;;;4955443;28;20970;-70
2023/04/26 09:31:10;;;;;;;11.73;2.90;;;12.00;99.90;;;;;;4956078;28;20485;-69
2023/04/26 09:33:36;;;;;;;4.13;2.43;;;12.20;99.90;;;;;;4955628;28;20895;-69
2023/04/26 09:36:12;;;;;;;6.60;2.50;;;12.40;99.90;;;;;;4955471;28;20473;-70
2023/04/26 09:38:43;;;;;;;13.93;3.50;;;12.30;99.90;;;;;;4955441;28;20957;-70
2023/04/26 09:41:10;;;;;;;5.10;2.60;;;12.10;99.90;;;;;;4955594;28;20802;-68
2023/04/26 09:43:37;;;;;;;3.20;2.90;;;12.10;99.90;;;;;;4955636;28;20491;-69
2023/04/26 09:46:04;;;;;;;8.50;2.70;;;12.00;99.90;;;;;;4955497;28;20869;-69
2023/04/26 09:48:33;;;;;;;5.70;2.60;;;12.00;99.90;;;;;;4955034;28;20458;-70
2023/04/26 09:51:09;;;;;;;5.10;2.53;;;12.00;99.90;;;;;;4955348;28;20477;-70
2023/04/26 09:53:37;;;;;;;4.67;2.57;;;12.00;99.90;;;;;;4955223;28;21029;-70
2023/04/26 09:56:10;;;;;;;4.43;2.87;;;12.00;99.90;;;;;;4955308;28;20819;-70
2023/04/26 09:58:38;;;;;;;3.30;2.30;;;12.00;99.90;;;;;;4955134;28;20449;-70
2023/04/26 10:01:06;;;;;;;5.63;2.60;;;12.00;99.90;;;;;;4955203;28;20647;-70
2023/04/26 10:03:34;;;;;;;4.93;2.90;;;11.90;99.90;;;;;;4955065;28;20457;-70
2023/04/26 10:06:01;;;;;;;5.73;2.90;;;11.70;99.90;;;;;;4954980;28;20453;-69
2023/04/26 10:08:28;;;;;;;4.97;2.80;;;11.80;99.90;;;;;;4955404;28;20461;-70
2023/04/26 10:10:55;;;;;;;3.40;2.70;;;11.80;99.90;;;;;;4955070;28;20970;-70
2023/04/26 10:13:23;;;;;;;6.60;2.67;;;11.80;99.90;;;;;;4955212;28;20930;-70
2023/04/26 10:15:50;;;;;;;5.13;2.77;;;12.10;99.90;;;;;;4947424;28;20590;-70
2023/04/26 10:18:17;;;;;;;5.80;3.60;;;12.40;99.90;;;;;;4954920;28;20458;-70
2023/04/26 10:20:48;;;;;;;5.67;2.90;;;13.10;99.90;;;;;;4954837;28;20481;-71
2023/04/26 10:23:19;;;;;;;4.80;2.57;;;13.60;99.90;;;;;;4954897;28;20950;-70
2023/04/26 10:25:47;;;;;;;4.93;2.60;;;14.00;99.90;;;;;;4954571;28;20540;-70
2023/04/26 10:28:13;;;;;;;7.60;2.23;;;14.00;99.90;;;;;;4954633;28;20508;-70
2023/04/26 10:30:57;;;;;;;4.50;3.13;;;13.90;99.90;;;;;;4954418;28;20477;-70
2023/04/26 10:33:24;;;;;;;4.27;3.00;;;13.70;99.90;;;;;;4954728;28;20501;-70
2023/04/26 10:36:11;;;;;;;5.77;2.87;;;13.40;99.90;;;;;;4954574;28;20453;-70
2023/04/26 10:38:40;;;;;;;6.20;2.70;;;13.10;99.90;;;;;;4954706;28;20458;-71
2023/04/26 10:41:33;;;;;;;4.10;2.90;;;13.00;99.90;;;;;;4954695;28;20707;-71
2023/04/26 10:44:16;;;;;;;5.27;2.90;;;12.80;99.90;;;;;;4954815;28;20461;-70
2023/04/26 10:46:50;;;;;;;4.90;3.00;;;12.70;99.90;;;;;;4954224;28;20528;-71
2023/04/26 10:49:21;;;;;;;6.13;3.53;;;12.40;99.90;;;;;;4954072;28;20850;-70
2023/04/26 10:52:11;;;;;;;12.60;3.10;;;12.30;99.90;;;;;;4954471;28;20493;-70
2023/04/26 10:54:54;;;;;;;6.60;3.67;;;12.30;99.90;;;;;;4954191;28;20535;-71
2023/04/26 10:57:22;;;;;;;4.30;2.83;;;12.30;99.90;;;;;;4954310;28;20508;-70
2023/04/26 11:00:19;;;;;;;2.40;2.20;;;12.50;99.90;;;;;;4954137;28;20899;-70
2023/04/26 11:03:08;;;;;;;14.93;3.23;;;12.90;99.90;;;;;;4954247;28;20546;-71
2023/04/26 11:05:54;;;;;;;6.37;2.90;;;13.20;99.90;;;;;;4953611;28;20454;-70
2023/04/26 11:08:24;;;;;;;3.53;2.63;;;13.50;99.90;;;;;;4954423;28;20521;-70
2023/04/26 11:10:57;;;;;;;4.60;3.03;;;13.60;99.90;;;;;;4946644;28;20473;-70
2023/04/26 11:13:24;;;;;;;6.33;3.23;;;13.60;99.90;;;;;;4954082;28;20490;-71
2023/04/26 11:15:53;;;;;;;6.70;2.90;;;13.80;99.90;;;;;;4953858;28;20521;-70
2023/04/26 11:18:22;;;;;;;5.87;2.90;;;13.90;99.90;;;;;;4953758;28;20491;-70
2023/04/26 11:20:49;;;;;;;8.90;3.17;;;13.60;99.90;;;;;;4953938;28;20477;-71
2023/04/26 11:23:17;;;;;;;9.53;3.23;;;13.40;99.90;;;;;;4954015;28;20485;-71
2023/04/26 11:25:44;;;;;;;7.30;3.23;;;13.30;99.90;;;;;;4953622;28;20458;-70
2023/04/26 11:28:11;;;;;;;4.57;3.13;;;12.90;99.90;;;;;;4954028;28;20504;-70
2023/04/26 11:30:38;;;;;;;4.50;2.87;;;12.90;99.90;;;;;;4953359;28;20536;-70
2023/04/26 11:33:04;;;;;;;11.93;3.13;;;12.90;99.90;;;;;;4953515;28;20554;-71
2023/04/26 11:35:35;;;;;;;6.93;3.23;;;12.80;99.90;;;;;;4953603;28;20457;-70
2023/04/26 11:38:03;;;;;;;5.07;3.10;;;12.90;99.90;;;;;;4953798;28;20453;-70
2023/04/26 11:40:32;;;;;;;5.93;3.27;;;12.80;99.90;;;;;;4952562;28;20474;-70
2023/04/26 11:43:02;;;;;;;4.70;3.70;;;12.60;99.90;;;;;;4953944;28;20513;-70
2023/04/26 11:45:29;;;;;;;8.57;2.77;;;12.60;99.90;;;;;;4952990;28;20458;-71
2023/04/26 11:47:57;;;;;;;9.07;3.27;;;12.70;99.90;;;;;;4953335;28;20537;-70
2023/04/26 11:50:25;;;;;;;8.20;3.03;;;12.90;99.90;;;;;;4953491;28;20541;-70
2023/04/26 11:52:55;;;;;;;15.93;3.27;;;13.10;99.90;;;;;;4953748;28;20493;-71
2023/04/26 11:55:27;;;;;;;5.67;2.80;;;13.30;99.90;;;;;;4952772;28;20563;-71
2023/04/26 11:57:54;;;;;;;8.00;2.80;;;13.50;99.90;;;;;;4945894;28;20865;-71
2023/04/26 12:00:21;;;;;;;8.10;2.97;;;13.60;99.90;;;;;;4948944;28;21043;-71
2023/04/26 12:02:48;;;;;;;6.57;3.33;;;13.60;99.90;;;;;;4953021;28;20482;-71
2023/04/26 12:05:22;;;;;;;8.00;3.50;;;13.60;99.90;;;;;;4952776;28;20454;-71
2023/04/26 12:07:55;;;;;;;11.57;3.33;;;13.70;99.90;;;;;;4952753;28;20930;-71
2023/04/26 12:10:25;;;;;;;8.60;3.30;;;14.00;99.90;;;;;;4953054;28;20556;-71
2023/04/26 12:12:55;;;;;;;7.87;3.57;;;14.30;99.90;;;;;;4952816;28;21092;-71
2023/04/26 12:15:28;;;;;;;10.87;3.53;;;14.70;99.90;;;;;;4952738;28;20534;-71
2023/04/26 12:17:56;;;;;;;5.50;3.27;;;15.10;99.90;;;;;;4945772;28;20442;-71
2023/04/26 12:20:30;;;;;;;10.07;3.60;;;15.40;99.90;;;;;;4952631;28;20478;-71
2023/04/26 12:22:59;;;;;;;6.13;3.03;;;15.40;99.90;;;;;;4952982;28;20450;-71
2023/04/26 12:25:26;;;;;;;10.03;3.47;;;15.30;99.90;;;;;;4952772;28;20462;-71
2023/04/26 12:27:53;;;;;;;9.07;3.20;;;15.30;99.90;;;;;;4952589;28;20950;-71
2023/04/26 12:30:20;;;;;;;5.87;3.30;;;15.10;99.90;;;;;;4952613;28;20477;-71
2023/04/26 12:32:47;;;;;;;6.97;3.50;;;14.70;99.90;;;;;;4952326;28;20489;-70
2023/04/26 12:35:13;;;;;;;7.63;3.17;;;14.80;99.90;;;;;;4952704;28;20454;-71
2023/04/26 12:37:40;;;;;;;12.50;3.27;;;14.40;99.90;;;;;;4952302;28;20993;-71
2023/04/26 12:40:10;;;;;;;7.70;4.13;;;14.40;99.90;;;;;;4952628;28;20485;-70
2023/04/26 12:42:37;;;;;;;8.70;4.17;;;14.20;99.90;;;;;;4952397;28;20460;-69
2023/04/26 12:45:05;;;;;;;9.03;3.70;;;14.30;99.90;;;;;;4952348;28;20446;-70
2023/04/26 12:47:31;;;;;;;4.40;3.10;;;14.20;99.90;;;;;;4951608;28;20462;-68
2023/04/26 12:49:59;;;;;;;9.27;3.77;;;14.00;99.90;;;;;;4952440;28;20474;-69
2023/04/26 12:52:26;;;;;;;3.97;3.07;;;14.00;99.90;;;;;;4952382;28;20973;-70
2023/04/26 12:54:53;;;;;;;14.63;3.57;;;14.00;99.90;;;;;;4952217;28;20449;-69